createdAt,value
2018-03-23T00:02:37.099Z,69.20
2018-03-23T00:05:05.383Z,63.45
2018-03-23T00:07:38.635Z,69.45
2018-03-23T00:10:15.211Z,64.50
2018-03-23T00:12:45.243Z,65.18
2018-03-23T00:15:18.831Z,70.93
2018-03-23T00:17:48.791Z,62.65
2018-03-23T00:20:16.879Z,67.97
2018-03-23T00:22:44.952Z,63.72
2018-03-23T00:25:15.413Z,67.93
2018-03-23T00:27:49.898Z,63.65
2018-03-23T00:30:17.927Z,61.17
2018-03-23T00:32:53.867Z,63.05
2018-03-23T00:35:23.883Z,67.82
2018-03-23T00:37:53.083Z,61.15
2018-03-23T00:40:25.358Z,62.67
2018-03-23T00:42:57.795Z,71.90
2018-03-23T00:45:26.870Z,60.42
2018-03-23T00:48:02.124Z,60.33
2018-03-23T00:50:35.455Z,59.70
2018-03-23T00:53:05.454Z,55.53
2018-03-23T00:55:35.686Z,60.72
2018-03-23T00:58:10.019Z,54.45
2018-03-23T01:00:41.910Z,57.75
2018-03-23T01:03:11.339Z,54.53
2018-03-23T01:05:48.867Z,65.80
2018-03-23T01:08:16.895Z,54.95
2018-03-23T01:10:49.878Z,65.10
2018-03-23T01:13:22.992Z,57.40
2018-03-23T01:15:51.202Z,59.33
2018-03-23T01:18:21.275Z,58.00
2018-03-23T01:20:53.346Z,63.65
2018-03-23T01:23:25.084Z,55.53
2018-03-23T01:25:53.158Z,63.70
2018-03-23T01:28:37.835Z,67.60
2018-03-23T01:31:10.930Z,59.60
2018-03-23T01:33:40.187Z,66.78
2018-03-23T01:36:09.250Z,64.35
2018-03-23T01:38:38.319Z,59.78
2018-03-23T01:41:08.370Z,65.30
2018-03-23T01:43:38.422Z,61.78
2018-03-23T01:46:14.162Z,57.42
2018-03-23T01:48:44.002Z,65.85
2018-03-23T01:51:13.006Z,65.82
2018-03-23T01:53:43.918Z,66.93
2018-03-23T01:56:15.766Z,61.13
2018-03-23T01:58:44.595Z,66.75
2018-03-23T02:01:14.565Z,65.60
2018-03-23T02:03:46.774Z,79.62
2018-03-23T02:06:18.346Z,71.55
2018-03-23T02:08:52.044Z,63.87
2018-03-23T02:11:24.706Z,68.20
2018-03-23T02:13:59.879Z,55.47
2018-03-23T02:16:29.982Z,61.15
2018-03-23T02:19:04.510Z,64.00
2018-03-23T02:21:32.557Z,57.28
2018-03-23T02:24:09.066Z,56.13
2018-03-23T02:26:41.802Z,63.47
2018-03-23T02:29:11.818Z,63.87
2018-03-23T02:31:43.414Z,59.42
2018-03-23T02:34:13.509Z,49.53
2018-03-23T02:36:44.079Z,58.05
2018-03-23T02:39:13.130Z,53.50
2018-03-23T02:41:44.762Z,57.50
2018-03-23T02:44:13.547Z,55.10
2018-03-23T02:46:43.558Z,55.55
2018-03-23T02:49:15.559Z,55.50
2018-03-23T02:51:44.583Z,50.70
2018-03-23T02:54:15.722Z,53.22
2018-03-23T02:56:44.750Z,63.40
2018-03-23T02:59:14.583Z,62.10
2018-03-23T03:01:42.619Z,57.95
2018-03-23T03:04:16.454Z,58.67
2018-03-23T03:06:57.118Z,59.33
2018-03-23T03:09:28.533Z,56.03
2018-03-23T03:11:59.926Z,60.50
2018-03-23T03:14:40.153Z,61.65
2018-03-23T03:17:09.833Z,68.75
2018-03-23T03:19:37.882Z,67.20
2018-03-23T03:22:07.724Z,108.65
2018-03-23T03:24:37.142Z,71.85
2018-03-23T03:27:09.144Z,76.00
2018-03-23T03:29:37.422Z,113.20
2018-03-23T03:32:08.526Z,95.65
2018-03-23T03:34:39.410Z,94.70
2018-03-23T03:37:13.158Z,86.10
2018-03-23T03:39:41.946Z,166.77
2018-03-23T03:42:13.801Z,135.45
2018-03-23T03:44:42.722Z,99.62
2018-03-23T03:47:14.645Z,82.62
2018-03-23T03:49:44.425Z,129.60
2018-03-23T03:52:12.438Z,147.62
2018-03-23T03:54:43.786Z,186.40
2018-03-23T03:57:17.709Z,231.00
2018-03-23T03:59:46.101Z,184.95
2018-03-23T04:02:19.637Z,176.23
2018-03-23T04:04:48.674Z,212.85
2018-03-23T04:07:24.838Z,201.10
2018-03-23T04:09:54.809Z,233.80
2018-03-23T04:12:24.858Z,248.10
2018-03-23T04:14:54.865Z,334.42
2018-03-23T04:17:24.698Z,267.37
2018-03-23T04:19:56.529Z,277.38
2018-03-23T04:22:32.726Z,373.38
2018-03-23T04:25:02.321Z,294.85
2018-03-23T04:27:31.249Z,278.92
2018-03-23T04:30:00.490Z,171.05
2018-03-23T04:32:28.725Z,425.02
2018-03-23T04:34:57.742Z,269.08
2018-03-23T04:37:28.049Z,406.92
2018-03-23T04:39:58.573Z,303.00
2018-03-23T04:42:26.613Z,381.00
2018-03-23T04:45:15.873Z,269.17
2018-03-23T04:47:44.317Z,369.55
2018-03-23T04:50:13.534Z,396.92
2018-03-23T04:52:41.841Z,369.95
2018-03-23T04:55:10.373Z,342.25
2018-03-23T04:57:53.129Z,285.65
2018-03-23T05:00:21.178Z,356.23
2018-03-23T05:02:53.117Z,373.17
2018-03-23T05:05:21.157Z,348.17
2018-03-23T05:08:00.289Z,366.38
2018-03-23T05:10:32.074Z,351.88
2018-03-23T05:13:02.809Z,432.45
2018-03-23T05:15:31.233Z,340.92
2018-03-23T05:17:59.289Z,435.63
2018-03-23T05:20:27.330Z,349.98
2018-03-23T05:23:08.719Z,326.58
2018-03-23T05:25:42.306Z,407.77
2018-03-23T05:28:10.349Z,464.23
2018-03-23T05:30:40.389Z,387.17
2018-03-23T05:33:08.436Z,407.77
2018-03-23T05:35:50.685Z,556.60
2018-03-23T05:38:24.253Z,417.65
2018-03-23T05:40:52.273Z,332.85
2018-03-23T05:43:20.309Z,367.25
2018-03-23T05:45:52.758Z,420.98
2018-03-23T05:48:20.797Z,448.23
2018-03-23T05:50:52.961Z,479.17
2018-03-23T05:53:33.442Z,366.60
2018-03-23T05:56:02.461Z,523.30
2018-03-23T05:58:37.173Z,559.55
2018-03-23T06:01:11.293Z,366.25
2018-03-23T06:03:39.345Z,260.15
2018-03-23T06:06:07.385Z,398.42
2018-03-23T06:08:35.421Z,471.25
2018-03-23T06:11:12.969Z,452.95
2018-03-23T06:13:41.989Z,369.73
2018-03-23T06:16:10.033Z,458.12
2018-03-23T06:18:39.045Z,401.77
2018-03-23T06:21:08.053Z,331.65
2018-03-23T06:23:39.285Z,386.02
2018-03-23T06:26:13.105Z,382.55
2018-03-23T06:28:45.748Z,473.77
2018-03-23T06:31:24.569Z,343.42
2018-03-23T06:33:52.597Z,619.97
2018-03-23T06:36:26.656Z,454.85
2018-03-23T06:39:06.474Z,436.45
2018-03-23T06:41:43.173Z,501.70
2018-03-23T06:44:13.117Z,451.25
2018-03-23T06:46:46.097Z,536.80
2018-03-23T06:49:22.529Z,617.08
2018-03-23T06:51:58.905Z,540.70
2018-03-23T06:54:31.119Z,318.27
2018-03-23T06:57:00.105Z,336.50
2018-03-23T06:59:28.904Z,352.80
2018-03-23T07:01:59.888Z,363.87
2018-03-23T07:04:29.880Z,411.25
2018-03-23T07:06:57.892Z,429.87
2018-03-23T07:09:25.937Z,412.50
2018-03-23T07:11:54.967Z,323.83
2018-03-23T07:14:25.708Z,429.52
2018-03-23T07:16:53.736Z,311.67
2018-03-23T07:19:23.681Z,391.38
2018-03-23T07:21:52.660Z,294.23
2018-03-23T07:24:26.352Z,324.75
2018-03-23T07:26:55.436Z,335.77
2018-03-23T07:29:23.400Z,244.87
2018-03-23T07:31:53.352Z,339.58
2018-03-23T07:34:23.364Z,296.48
2018-03-23T07:36:55.956Z,381.33
2018-03-23T07:39:23.971Z,347.48
2018-03-23T07:42:04.456Z,279.25
2018-03-23T07:44:34.390Z,281.63
2018-03-23T07:47:02.441Z,236.70
2018-03-23T07:49:33.512Z,356.55
2018-03-23T07:52:01.544Z,229.57
2018-03-23T07:54:42.472Z,232.37
2018-03-23T07:57:11.264Z,198.87
2018-03-23T07:59:39.316Z,226.75
2018-03-23T08:02:09.325Z,131.12
2018-03-23T08:04:37.401Z,187.77
2018-03-23T08:07:05.379Z,107.68
2018-03-23T08:09:40.048Z,141.50
2018-03-23T08:12:12.296Z,120.87
2018-03-23T08:14:42.169Z,89.47
2018-03-23T08:17:12.108Z,71.93
2018-03-23T08:19:44.744Z,71.90
2018-03-23T08:22:12.780Z,55.80
2018-03-23T08:24:41.720Z,50.65
2018-03-23T08:27:10.704Z,56.42
2018-03-23T08:29:38.728Z,54.92
2018-03-23T08:32:06.756Z,48.50
2018-03-23T08:34:34.780Z,50.63
2018-03-23T08:37:02.796Z,50.65
2018-03-23T08:39:37.584Z,52.90
2018-03-23T08:42:05.600Z,51.95
2018-03-23T08:44:35.529Z,48.30
2018-03-23T08:47:03.524Z,62.83
2018-03-23T08:49:31.540Z,57.20
2018-03-23T08:51:59.567Z,58.00
2018-03-23T08:54:27.588Z,75.32
2018-03-23T08:56:55.604Z,49.03
2018-03-23T08:59:23.663Z,131.43
2018-03-23T09:01:51.686Z,160.32
2018-03-23T09:04:19.712Z,77.78
2018-03-23T09:06:47.732Z,79.95
2018-03-23T09:09:15.760Z,73.37
2018-03-23T09:11:43.788Z,90.97
2018-03-23T09:14:12.575Z,76.72
2018-03-23T09:16:41.364Z,96.50
2018-03-23T09:19:11.143Z,62.13
2018-03-23T09:21:39.162Z,59.00
2018-03-23T09:24:07.176Z,93.68
2018-03-23T09:26:35.192Z,94.60
2018-03-23T09:29:03.214Z,59.53
2018-03-23T09:31:32.380Z,64.12
2018-03-23T09:34:01.088Z,70.10
2018-03-23T09:36:29.110Z,59.65
2018-03-23T09:38:57.888Z,57.05
2018-03-23T09:41:26.756Z,72.12
2018-03-23T09:43:54.778Z,60.90
2018-03-23T09:46:22.816Z,66.47
2018-03-23T09:48:52.605Z,54.72
2018-03-23T09:51:20.624Z,56.30
2018-03-23T09:53:48.636Z,75.53
2018-03-23T09:56:16.648Z,58.90
2018-03-23T09:58:46.488Z,61.63
2018-03-23T10:01:15.228Z,51.90
2018-03-23T10:03:43.257Z,58.13
2018-03-23T10:06:11.272Z,78.03
2018-03-23T10:08:40.060Z,64.68
2018-03-23T10:11:08.840Z,63.80
2018-03-23T10:13:36.920Z,78.40
2018-03-23T10:16:05.736Z,62.75
2018-03-23T10:18:34.676Z,78.43
2018-03-23T10:21:03.066Z,67.60
2018-03-23T10:23:33.064Z,81.55
2018-03-23T10:26:01.088Z,75.45
2018-03-23T10:28:29.999Z,114.20
2018-03-23T10:30:59.927Z,95.40
2018-03-23T10:33:28.836Z,99.43
2018-03-23T10:35:56.851Z,86.65
2018-03-23T10:38:24.867Z,126.65
2018-03-23T10:41:07.199Z,78.07
2018-03-23T10:43:40.411Z,88.68
2018-03-23T10:46:12.175Z,152.45
2018-03-23T10:48:41.120Z,151.40
2018-03-23T10:51:10.908Z,126.90
2018-03-23T10:53:43.331Z,82.40
2018-03-23T10:56:11.328Z,170.30
2018-03-23T10:58:45.527Z,167.35
2018-03-23T11:01:21.243Z,120.72
2018-03-23T11:03:49.270Z,94.93
2018-03-23T11:06:30.004Z,93.55
2018-03-23T11:09:03.449Z,78.43
2018-03-23T11:11:31.482Z,65.15
2018-03-23T11:14:07.835Z,66.78
2018-03-23T11:16:46.800Z,65.12
2018-03-23T11:19:20.644Z,65.00
2018-03-23T11:22:11.691Z,51.63
2018-03-23T11:24:59.196Z,52.33
2018-03-23T11:30:25.311Z,46.80
2018-03-23T11:33:10.807Z,53.15
2018-03-23T11:35:38.839Z,45.92
2018-03-23T11:38:10.891Z,60.08
2018-03-23T11:40:55.327Z,63.72
2018-03-23T11:43:29.461Z,83.62
2018-03-23T11:46:00.735Z,72.60
2018-03-23T11:48:33.399Z,84.05
2018-03-23T11:51:01.435Z,101.45
2018-03-23T11:53:29.459Z,100.07
2018-03-23T11:56:02.567Z,93.62
2018-03-23T11:58:33.235Z,82.50
2018-03-23T12:01:08.096Z,63.35
2018-03-23T12:03:36.103Z,77.12
2018-03-23T12:06:04.875Z,76.97
2018-03-23T12:08:34.163Z,54.92
2018-03-23T12:11:02.183Z,61.95
2018-03-23T12:13:33.243Z,56.47
2018-03-23T12:16:01.294Z,60.12
2018-03-23T12:18:30.243Z,49.00
2018-03-23T12:20:59.142Z,48.03
2018-03-23T12:23:27.939Z,65.75
2018-03-23T12:25:56.742Z,48.92
2018-03-23T12:28:25.691Z,46.45
2018-03-23T12:30:53.723Z,52.55
2018-03-23T12:33:22.755Z,49.25
2018-03-23T12:35:51.675Z,44.60
2018-03-23T12:38:19.726Z,49.55
2018-03-23T12:40:52.531Z,50.50
2018-03-23T12:43:24.280Z,58.17
2018-03-23T12:45:53.062Z,63.55
2018-03-23T12:48:21.846Z,51.65
2018-03-23T12:50:50.809Z,55.60
2018-03-23T12:53:24.405Z,50.35
2018-03-23T12:55:59.103Z,67.72
2018-03-23T12:58:30.274Z,96.30
2018-03-23T13:01:05.686Z,78.55
2018-03-23T13:03:33.711Z,97.55
2018-03-23T13:06:07.490Z,88.15
2018-03-23T13:08:46.087Z,77.82
2018-03-23T13:11:17.666Z,75.35
2018-03-23T13:13:46.654Z,81.25
2018-03-23T13:16:15.657Z,81.20
2018-03-23T13:18:46.990Z,61.25
2018-03-23T13:21:18.690Z,55.78
2018-03-23T13:23:48.465Z,74.85
2018-03-23T13:26:16.503Z,75.72
2018-03-23T13:28:50.634Z,58.72
2018-03-23T13:31:23.130Z,58.47
2018-03-23T13:33:51.181Z,96.82
2018-03-23T13:36:21.226Z,63.85
2018-03-23T13:38:53.798Z,75.78
2018-03-23T13:41:31.645Z,53.78
2018-03-23T13:44:01.626Z,58.90
2018-03-23T13:46:29.680Z,64.78
2018-03-23T13:48:57.762Z,61.88
2018-03-23T13:51:26.561Z,60.78
2018-03-23T13:53:58.818Z,57.72
2018-03-23T13:56:26.862Z,59.65
2018-03-23T13:59:04.186Z,45.55
2018-03-23T14:01:41.215Z,56.30
2018-03-23T14:04:09.274Z,61.80
2018-03-23T14:06:37.287Z,52.75
2018-03-23T14:09:08.857Z,64.75
2018-03-23T14:11:39.633Z,67.55
2018-03-23T14:14:09.486Z,62.10
2018-03-23T14:16:37.525Z,55.90
2018-03-23T14:19:07.482Z,56.30
2018-03-23T14:21:37.461Z,64.50
2018-03-23T14:24:06.490Z,57.70
2018-03-23T14:26:36.491Z,60.03
2018-03-23T14:29:09.978Z,49.67
2018-03-23T14:31:38.179Z,54.33
2018-03-23T14:34:12.674Z,49.92
2018-03-23T14:36:40.778Z,55.70
2018-03-23T14:39:13.446Z,58.58
2018-03-23T14:41:46.118Z,53.58
2018-03-23T14:44:14.150Z,46.50
2018-03-23T14:46:42.229Z,48.40
2018-03-23T14:49:10.974Z,45.65
2018-03-23T14:51:39.007Z,41.28
2018-03-23T14:54:07.942Z,47.05
2018-03-23T14:56:35.965Z,46.45
2018-03-23T14:59:11.515Z,47.58
2018-03-23T15:01:40.501Z,46.80
2018-03-23T15:04:10.418Z,46.13
2018-03-23T15:06:45.117Z,47.05
2018-03-23T15:09:14.042Z,59.65
2018-03-23T15:11:43.053Z,48.17
2018-03-23T15:14:16.914Z,37.42
2018-03-23T15:16:45.842Z,46.08
2018-03-23T15:19:19.101Z,37.50
2018-03-23T15:21:47.194Z,34.97
2018-03-23T15:24:15.178Z,33.38
2018-03-23T15:26:47.530Z,40.08
2018-03-23T15:29:19.074Z,33.85
2018-03-23T15:32:01.210Z,25.42
2018-03-23T15:34:29.989Z,31.25
2018-03-23T15:37:04.598Z,29.80
2018-03-23T15:39:32.673Z,29.95
2018-03-23T15:44:58.022Z,29.90
2018-03-23T15:47:26.050Z,25.73
2018-03-23T15:50:08.921Z,32.00
2018-03-23T15:52:42.485Z,24.80
2018-03-23T15:55:11.274Z,30.75
2018-03-23T16:03:30.690Z,28.30
2018-03-23T16:06:04.573Z,31.65
2018-03-23T16:08:33.573Z,37.75
2018-03-23T16:11:04.819Z,32.30
2018-03-23T16:13:32.858Z,34.90
2018-03-23T16:16:01.773Z,32.35
2018-03-23T16:18:46.572Z,29.80
2018-03-23T16:24:10.085Z,34.05
2018-03-23T16:26:38.106Z,37.90
2018-03-23T16:29:10.661Z,29.15
2018-03-23T16:31:38.692Z,31.08
2018-03-23T16:34:10.389Z,33.38
2018-03-23T16:36:42.129Z,34.40
2018-03-23T16:39:31.065Z,38.22
2018-03-23T16:42:00.982Z,35.47
2018-03-23T16:44:32.577Z,32.35
2018-03-23T16:47:00.605Z,39.45
2018-03-23T16:49:48.141Z,33.35
2018-03-23T16:52:16.165Z,40.60
2018-03-23T16:54:44.953Z,42.75
2018-03-23T16:57:19.517Z,30.08
2018-03-23T16:59:51.301Z,39.47
2018-03-23T17:02:27.737Z,30.92
2018-03-23T17:04:57.645Z,43.35
2018-03-23T17:07:38.225Z,46.28
2018-03-23T17:10:09.501Z,45.50
2018-03-23T17:12:51.673Z,39.63
2018-03-23T17:15:30.177Z,39.72
2018-03-23T17:18:09.989Z,33.05
2018-03-23T17:20:50.916Z,35.80
2018-03-23T17:26:19.386Z,32.85
2018-03-23T17:28:48.310Z,34.65
2018-03-23T17:31:16.345Z,45.63
2018-03-23T17:33:48.965Z,38.95
2018-03-23T17:36:16.993Z,42.03
2018-03-23T17:38:45.001Z,46.60
2018-03-23T17:41:27.657Z,47.72
2018-03-23T17:44:08.721Z,41.70
2018-03-23T17:46:36.745Z,104.43
2018-03-23T17:49:04.760Z,43.83
2018-03-23T17:51:46.113Z,60.05
2018-03-23T17:54:16.128Z,71.72
2018-03-23T17:56:50.777Z,69.93
2018-03-23T17:59:21.993Z,83.12
2018-03-23T18:01:55.532Z,66.03
2018-03-23T18:04:24.597Z,63.70
2018-03-23T18:07:00.833Z,69.18
2018-03-23T18:09:33.940Z,58.87
2018-03-23T18:12:01.969Z,67.20
2018-03-23T18:14:29.992Z,56.33
2018-03-23T18:17:04.292Z,63.63
2018-03-23T18:19:40.013Z,69.00
2018-03-23T18:22:09.965Z,72.95
2018-03-23T18:24:41.713Z,62.42
2018-03-23T18:27:09.736Z,47.08
2018-03-23T18:29:50.016Z,38.70
2018-03-23T18:32:30.468Z,49.55
2018-03-23T18:35:03.081Z,48.25
2018-03-23T18:37:31.112Z,46.85
2018-03-23T18:39:59.124Z,41.72
2018-03-23T18:42:31.293Z,50.40
2018-03-23T18:45:01.401Z,54.60
2018-03-23T18:47:31.320Z,58.58
2018-03-23T18:50:09.289Z,60.80
2018-03-23T18:52:44.145Z,53.00
2018-03-23T18:55:13.145Z,63.78
2018-03-23T18:57:51.944Z,63.60
2018-03-23T19:00:38.428Z,74.32
2018-03-23T19:03:08.388Z,72.75
2018-03-23T19:05:40.548Z,70.07
2018-03-23T19:08:14.360Z,73.60
2018-03-23T19:10:50.536Z,88.62
2018-03-23T19:13:30.948Z,83.95
2018-03-23T19:16:00.905Z,73.00
2018-03-23T19:18:39.576Z,78.85
2018-03-23T19:21:19.732Z,75.75
2018-03-23T19:24:00.524Z,92.10
2018-03-23T19:26:49.960Z,71.90
2018-03-23T19:29:18.000Z,72.22
2018-03-23T19:31:50.548Z,67.55
2018-03-23T19:34:22.240Z,71.18
2018-03-23T19:36:51.008Z,71.95
2018-03-23T19:39:20.012Z,70.60
2018-03-23T19:41:48.990Z,78.85
2018-03-23T19:44:25.072Z,74.78
2018-03-23T19:47:08.196Z,75.95
2018-03-23T19:49:38.889Z,82.45
2018-03-23T19:52:10.335Z,79.62
2018-03-23T19:54:50.848Z,90.75
2018-03-23T19:57:21.566Z,99.62
2018-03-23T19:59:56.404Z,89.75
2018-03-23T20:02:42.183Z,96.12
2018-03-23T20:05:19.101Z,103.12
2018-03-23T20:07:47.123Z,112.72
2018-03-23T20:10:15.140Z,88.72
2018-03-23T20:12:51.404Z,88.35
2018-03-23T20:15:20.340Z,91.03
2018-03-23T20:17:56.156Z,82.45
2018-03-23T20:20:34.567Z,67.28
2018-03-23T20:23:07.785Z,76.00
2018-03-23T20:25:43.088Z,89.70
2018-03-23T20:28:19.884Z,87.22
2018-03-23T20:30:56.070Z,94.20
2018-03-23T20:33:35.660Z,94.50
2018-03-23T20:36:07.899Z,85.87
2018-03-23T20:38:36.852Z,97.20
2018-03-23T20:41:08.411Z,98.43
2018-03-23T20:43:37.396Z,90.28
2018-03-23T20:46:07.845Z,87.45
2018-03-23T20:48:35.880Z,96.78
2018-03-23T20:51:10.391Z,102.12
2018-03-23T20:53:38.404Z,109.40
2018-03-23T20:56:09.532Z,100.05
2018-03-23T20:58:43.358Z,96.60
2018-03-23T21:01:12.143Z,112.68
2018-03-23T21:03:41.943Z,100.68
2018-03-23T21:06:09.971Z,93.65
2018-03-23T21:08:39.020Z,98.82
2018-03-23T21:11:12.515Z,113.20
2018-03-23T21:13:40.543Z,103.90
2018-03-23T21:16:08.591Z,111.28
2018-03-23T21:18:36.640Z,114.18
2018-03-23T21:21:05.600Z,114.37
2018-03-23T21:23:39.204Z,118.32
2018-03-23T21:26:08.212Z,118.45
2018-03-23T21:28:39.839Z,105.85
2018-03-23T21:31:08.844Z,140.27
2018-03-23T21:33:40.608Z,122.55
2018-03-23T21:36:08.699Z,136.82
2018-03-23T21:38:41.919Z,128.62
2018-03-23T21:41:14.919Z,126.32
2018-03-23T21:43:42.956Z,118.65
2018-03-23T21:46:14.172Z,111.88
2018-03-23T21:48:46.848Z,136.32
2018-03-23T21:51:15.892Z,114.62
2018-03-23T21:53:47.560Z,135.18
2018-03-23T21:56:17.537Z,128.43
2018-03-23T21:58:50.035Z,133.80
2018-03-23T22:01:19.045Z,131.73
2018-03-23T22:03:52.695Z,133.80
2018-03-23T22:06:24.223Z,151.25
2018-03-23T22:08:52.767Z,124.07
2018-03-23T22:16:31.731Z,138.32
2018-03-23T22:18:59.866Z,132.10
2018-03-23T22:21:33.351Z,152.90
2018-03-23T22:24:02.303Z,128.93
2018-03-23T22:26:33.636Z,139.45
2018-03-23T22:29:16.871Z,140.45
2018-03-23T22:31:45.775Z,136.80
2018-03-23T22:34:17.467Z,144.85
2018-03-23T22:36:49.555Z,125.60
2018-03-23T22:39:17.695Z,130.25
2018-03-23T22:41:50.967Z,123.45
2018-03-23T22:44:21.063Z,124.12
2018-03-23T22:46:49.127Z,137.40
2018-03-23T22:49:22.940Z,137.65
2018-03-23T22:51:52.020Z,155.90
2018-03-23T22:54:20.139Z,156.77
2018-03-23T22:56:48.532Z,162.65
2018-03-23T22:59:16.647Z,140.57
2018-03-23T23:01:45.695Z,126.40
2018-03-23T23:04:18.899Z,133.77
2018-03-23T23:06:53.748Z,143.40
2018-03-23T23:09:27.642Z,141.50
2018-03-23T23:11:55.977Z,126.25
2018-03-23T23:14:25.619Z,134.70
2018-03-23T23:16:54.871Z,131.35
2018-03-23T23:19:22.903Z,134.68
2018-03-23T23:21:52.302Z,133.52
2018-03-23T23:24:21.347Z,130.25
2018-03-23T23:26:51.718Z,143.37
2018-03-23T23:29:26.503Z,138.75
2018-03-23T23:31:54.578Z,154.43
2018-03-23T23:34:23.799Z,121.00
2018-03-23T23:36:52.999Z,157.48
2018-03-23T23:39:22.063Z,151.90
2018-03-23T23:41:52.127Z,107.15
2018-03-23T23:44:22.111Z,138.98
2018-03-23T23:46:51.651Z,109.95
2018-03-23T23:49:20.627Z,131.85
2018-03-23T23:51:51.203Z,137.20
2018-03-23T23:54:24.055Z,155.75
2018-03-23T23:56:54.451Z,139.62
2018-03-23T23:59:23.459Z,149.77
